sensor_id;sensor_type;location;lat;lon;timestamp;temperature;humidity
38333;DHT22;25748;46.670;14.272;2022-12-18T00:01:03;0.00;67.90
38333;DHT22;25748;46.670;14.272;2022-12-18T00:03:35;0.00;67.90
38333;DHT22;25748;46.670;14.272;2022-12-18T00:06:01;0.00;67.90
38333;DHT22;25748;46.670;14.272;2022-12-18T00:08:28;-0.10;67.90
38333;DHT22;25748;46.670;14.272;2022-12-18T00:10:54;-0.10;68.00
38333;DHT22;25748;46.670;14.272;2022-12-18T00:13:20;-0.10;68.20
38333;DHT22;25748;46.670;14.272;2022-12-18T00:15:47;-0.20;68.20
38333;DHT22;25748;46.670;14.272;2022-12-18T00:18:13;-0.20;68.30
38333;DHT22;25748;46.670;14.272;2022-12-18T00:20:40;-0.20;68.40
38333;DHT22;25748;46.670;14.272;2022-12-18T00:23:06;-0.20;68.50
38333;DHT22;25748;46.670;14.272;2022-12-18T00:25:37;-0.20;68.50
38333;DHT22;25748;46.670;14.272;2022-12-18T00:28:03;-0.30;68.50
38333;DHT22;25748;46.670;14.272;2022-12-18T00:30:31;-0.30;68.50
38333;DHT22;25748;46.670;14.272;2022-12-18T00:33:27;-0.30;68.50
38333;DHT22;25748;46.670;14.272;2022-12-18T00:36:09;-0.30;68.50
38333;DHT22;25748;46.670;14.272;2022-12-18T00:38:36;-0.40;68.50
38333;DHT22;25748;46.670;14.272;2022-12-18T00:41:03;-0.40;68.50
38333;DHT22;25748;46.670;14.272;2022-12-18T00:43:29;-0.40;68.60
38333;DHT22;25748;46.670;14.272;2022-12-18T00:45:55;-0.40;68.70
38333;DHT22;25748;46.670;14.272;2022-12-18T00:48:23;-0.40;68.80
38333;DHT22;25748;46.670;14.272;2022-12-18T00:50:49;-0.40;68.80
38333;DHT22;25748;46.670;14.272;2022-12-18T00:53:18;-0.40;68.90
38333;DHT22;25748;46.670;14.272;2022-12-18T00:55:48;-0.50;68.80
38333;DHT22;25748;46.670;14.272;2022-12-18T00:58:15;-0.50;68.90
38333;DHT22;25748;46.670;14.272;2022-12-18T01:00:44;-0.40;69.10
38333;DHT22;25748;46.670;14.272;2022-12-18T01:03:13;-0.50;69.10
38333;DHT22;25748;46.670;14.272;2022-12-18T01:05:41;-0.50;69.10
38333;DHT22;25748;46.670;14.272;2022-12-18T01:08:08;-0.40;69.20
38333;DHT22;25748;46.670;14.272;2022-12-18T01:10:35;-0.40;69.20
38333;DHT22;25748;46.670;14.272;2022-12-18T01:13:02;-0.40;69.30
38333;DHT22;25748;46.670;14.272;2022-12-18T01:15:28;-0.40;69.30
38333;DHT22;25748;46.670;14.272;2022-12-18T01:17:55;-0.40;69.30
38333;DHT22;25748;46.670;14.272;2022-12-18T01:20:23;-0.40;69.30
38333;DHT22;25748;46.670;14.272;2022-12-18T01:22:52;-0.40;69.30
38333;DHT22;25748;46.670;14.272;2022-12-18T01:25:19;-0.40;69.40
38333;DHT22;25748;46.670;14.272;2022-12-18T01:27:44;-0.40;69.40
38333;DHT22;25748;46.670;14.272;2022-12-18T01:30:12;-0.40;69.40
38333;DHT22;25748;46.670;14.272;2022-12-18T01:32:38;-0.40;69.40
38333;DHT22;25748;46.670;14.272;2022-12-18T01:35:04;-0.40;69.40
38333;DHT22;25748;46.670;14.272;2022-12-18T01:37:30;-0.30;69.50
38333;DHT22;25748;46.670;14.272;2022-12-18T01:39:56;-0.30;69.40
38333;DHT22;25748;46.670;14.272;2022-12-18T01:42:22;-0.40;69.30
38333;DHT22;25748;46.670;14.272;2022-12-18T01:47:44;-0.30;69.50
38333;DHT22;25748;46.670;14.272;2022-12-18T01:50:17;-0.30;69.50
38333;DHT22;25748;46.670;14.272;2022-12-18T01:52:46;-0.30;69.50
38333;DHT22;25748;46.670;14.272;2022-12-18T01:55:16;-0.40;69.40
38333;DHT22;25748;46.670;14.272;2022-12-18T01:57:44;-0.30;69.50
38333;DHT22;25748;46.670;14.272;2022-12-18T02:00:14;-0.30;69.60
38333;DHT22;25748;46.670;14.272;2022-12-18T02:02:43;-0.30;69.60
38333;DHT22;25748;46.670;14.272;2022-12-18T02:05:11;-0.30;69.60
38333;DHT22;25748;46.670;14.272;2022-12-18T02:10:30;-0.30;69.60
38333;DHT22;25748;46.670;14.272;2022-12-18T02:16:08;-0.30;69.60
38333;DHT22;25748;46.670;14.272;2022-12-18T02:18:38;-0.30;69.70
38333;DHT22;25748;46.670;14.272;2022-12-18T02:21:42;-0.30;69.70
38333;DHT22;25748;46.670;14.272;2022-12-18T02:27:05;-0.30;69.80
38333;DHT22;25748;46.670;14.272;2022-12-18T02:29:51;-0.30;69.80
38333;DHT22;25748;46.670;14.272;2022-12-18T02:32:24;-0.30;69.90
38333;DHT22;25748;46.670;14.272;2022-12-18T02:34:51;-0.20;70.00
38333;DHT22;25748;46.670;14.272;2022-12-18T02:37:18;-0.20;69.90
38333;DHT22;25748;46.670;14.272;2022-12-18T02:39:48;-0.30;69.90
38333;DHT22;25748;46.670;14.272;2022-12-18T02:42:16;-0.20;70.00
38333;DHT22;25748;46.670;14.272;2022-12-18T02:44:48;-0.30;69.90
38333;DHT22;25748;46.670;14.272;2022-12-18T02:47:19;-0.20;70.10
38333;DHT22;25748;46.670;14.272;2022-12-18T02:55:28;-0.20;70.10
38333;DHT22;25748;46.670;14.272;2022-12-18T03:00:43;-0.20;69.90
38333;DHT22;25748;46.670;14.272;2022-12-18T03:03:24;-0.20;69.90
38333;DHT22;25748;46.670;14.272;2022-12-18T03:06:02;-0.20;70.00
38333;DHT22;25748;46.670;14.272;2022-12-18T03:08:31;-0.20;70.10
38333;DHT22;25748;46.670;14.272;2022-12-18T03:11:18;-0.20;70.10
38333;DHT22;25748;46.670;14.272;2022-12-18T03:14:07;-0.20;70.10
38333;DHT22;25748;46.670;14.272;2022-12-18T03:16:34;-0.20;70.10
38333;DHT22;25748;46.670;14.272;2022-12-18T03:19:07;-0.20;70.20
38333;DHT22;25748;46.670;14.272;2022-12-18T03:21:41;-0.10;70.20
38333;DHT22;25748;46.670;14.272;2022-12-18T03:24:09;-0.10;70.20
38333;DHT22;25748;46.670;14.272;2022-12-18T03:26:40;-0.10;70.20
38333;DHT22;25748;46.670;14.272;2022-12-18T03:29:14;-0.10;70.10
38333;DHT22;25748;46.670;14.272;2022-12-18T03:31:42;-0.10;70.10
38333;DHT22;25748;46.670;14.272;2022-12-18T03:34:19;-0.10;70.20
38333;DHT22;25748;46.670;14.272;2022-12-18T03:36:49;-0.10;70.20
38333;DHT22;25748;46.670;14.272;2022-12-18T03:39:15;-0.10;70.20
38333;DHT22;25748;46.670;14.272;2022-12-18T03:41:47;0.00;70.30
38333;DHT22;25748;46.670;14.272;2022-12-18T03:49:56;0.00;70.40
38333;DHT22;25748;46.670;14.272;2022-12-18T03:52:26;0.00;70.20
38333;DHT22;25748;46.670;14.272;2022-12-18T03:54:56;0.00;70.20
38333;DHT22;25748;46.670;14.272;2022-12-18T03:57:26;0.00;70.20
38333;DHT22;25748;46.670;14.272;2022-12-18T04:00:07;0.00;70.20
38333;DHT22;25748;46.670;14.272;2022-12-18T04:02:34;0.00;70.30
38333;DHT22;25748;46.670;14.272;2022-12-18T04:05:04;0.00;70.30
38333;DHT22;25748;46.670;14.272;2022-12-18T04:07:32;0.00;70.30
38333;DHT22;25748;46.670;14.272;2022-12-18T04:09:59;0.00;70.30
38333;DHT22;25748;46.670;14.272;2022-12-18T04:12:26;0.00;70.30
38333;DHT22;25748;46.670;14.272;2022-12-18T04:14:53;0.10;70.50
38333;DHT22;25748;46.670;14.272;2022-12-18T04:17:19;0.10;70.40
38333;DHT22;25748;46.670;14.272;2022-12-18T04:19:45;0.10;70.50
38333;DHT22;25748;46.670;14.272;2022-12-18T04:22:11;0.10;70.60
38333;DHT22;25748;46.670;14.272;2022-12-18T04:24:37;0.10;70.60
38333;DHT22;25748;46.670;14.272;2022-12-18T04:27:05;0.10;70.70
38333;DHT22;25748;46.670;14.272;2022-12-18T04:29:31;0.20;70.80
38333;DHT22;25748;46.670;14.272;2022-12-18T04:31:57;0.20;70.70
38333;DHT22;25748;46.670;14.272;2022-12-18T04:34:23;0.20;70.60
38333;DHT22;25748;46.670;14.272;2022-12-18T04:36:48;0.20;70.50
38333;DHT22;25748;46.670;14.272;2022-12-18T04:39:17;0.20;70.60
38333;DHT22;25748;46.670;14.272;2022-12-18T04:41:46;0.20;70.60
38333;DHT22;25748;46.670;14.272;2022-12-18T04:44:12;0.30;70.70
38333;DHT22;25748;46.670;14.272;2022-12-18T04:46:37;0.30;70.50
38333;DHT22;25748;46.670;14.272;2022-12-18T04:49:03;0.30;70.60
38333;DHT22;25748;46.670;14.272;2022-12-18T04:51:31;0.30;70.50
38333;DHT22;25748;46.670;14.272;2022-12-18T04:53:56;0.30;70.40
38333;DHT22;25748;46.670;14.272;2022-12-18T04:56:22;0.30;70.40
38333;DHT22;25748;46.670;14.272;2022-12-18T04:58:49;0.30;70.20
38333;DHT22;25748;46.670;14.272;2022-12-18T05:01:16;0.40;70.10
38333;DHT22;25748;46.670;14.272;2022-12-18T05:03:44;0.40;70.00
38333;DHT22;25748;46.670;14.272;2022-12-18T05:06:10;0.40;69.90
38333;DHT22;25748;46.670;14.272;2022-12-18T05:08:36;0.40;69.80
38333;DHT22;25748;46.670;14.272;2022-12-18T05:11:05;0.40;69.70
38333;DHT22;25748;46.670;14.272;2022-12-18T05:13:32;0.40;69.60
38333;DHT22;25748;46.670;14.272;2022-12-18T05:15:58;0.50;69.60
38333;DHT22;25748;46.670;14.272;2022-12-18T05:18:24;0.50;69.60
38333;DHT22;25748;46.670;14.272;2022-12-18T05:20:50;0.50;69.40
38333;DHT22;25748;46.670;14.272;2022-12-18T05:23:17;0.50;69.30
38333;DHT22;25748;46.670;14.272;2022-12-18T05:25:51;0.50;69.10
38333;DHT22;25748;46.670;14.272;2022-12-18T05:28:16;0.50;69.10
38333;DHT22;25748;46.670;14.272;2022-12-18T05:30:42;0.50;69.10
38333;DHT22;25748;46.670;14.272;2022-12-18T05:33:08;0.50;69.00
38333;DHT22;25748;46.670;14.272;2022-12-18T05:35:33;0.50;68.80
38333;DHT22;25748;46.670;14.272;2022-12-18T05:37:59;0.50;68.60
38333;DHT22;25748;46.670;14.272;2022-12-18T05:40:25;0.50;68.60
38333;DHT22;25748;46.670;14.272;2022-12-18T05:42:50;0.50;68.50
38333;DHT22;25748;46.670;14.272;2022-12-18T05:45:16;0.50;68.30
38333;DHT22;25748;46.670;14.272;2022-12-18T05:47:42;0.50;68.20
38333;DHT22;25748;46.670;14.272;2022-12-18T05:50:08;0.50;68.20
38333;DHT22;25748;46.670;14.272;2022-12-18T05:52:33;0.60;68.40
38333;DHT22;25748;46.670;14.272;2022-12-18T05:55:02;0.50;68.20
38333;DHT22;25748;46.670;14.272;2022-12-18T05:57:27;0.50;68.10
38333;DHT22;25748;46.670;14.272;2022-12-18T05:59:53;0.60;68.20
38333;DHT22;25748;46.670;14.272;2022-12-18T06:02:19;0.60;68.20
38333;DHT22;25748;46.670;14.272;2022-12-18T06:04:46;0.60;68.20
38333;DHT22;25748;46.670;14.272;2022-12-18T06:07:12;0.60;68.20
38333;DHT22;25748;46.670;14.272;2022-12-18T06:09:38;0.60;68.10
38333;DHT22;25748;46.670;14.272;2022-12-18T06:12:04;0.60;68.10
38333;DHT22;25748;46.670;14.272;2022-12-18T06:14:30;0.60;67.90
38333;DHT22;25748;46.670;14.272;2022-12-18T06:16:55;0.60;67.90
38333;DHT22;25748;46.670;14.272;2022-12-18T06:19:21;0.60;67.80
38333;DHT22;25748;46.670;14.272;2022-12-18T06:21:47;0.60;67.80
38333;DHT22;25748;46.670;14.272;2022-12-18T06:24:13;0.60;67.80
38333;DHT22;25748;46.670;14.272;2022-12-18T06:26:39;0.60;67.90
38333;DHT22;25748;46.670;14.272;2022-12-18T06:29:05;0.60;67.80
38333;DHT22;25748;46.670;14.272;2022-12-18T06:31:31;0.60;67.80
38333;DHT22;25748;46.670;14.272;2022-12-18T06:33:56;0.60;67.80
38333;DHT22;25748;46.670;14.272;2022-12-18T06:36:22;0.60;67.80
38333;DHT22;25748;46.670;14.272;2022-12-18T06:38:48;0.60;67.70
38333;DHT22;25748;46.670;14.272;2022-12-18T06:41:17;0.60;67.50
38333;DHT22;25748;46.670;14.272;2022-12-18T06:43:44;0.60;67.50
38333;DHT22;25748;46.670;14.272;2022-12-18T06:46:11;0.60;67.50
38333;DHT22;25748;46.670;14.272;2022-12-18T06:48:36;0.60;67.50
38333;DHT22;25748;46.670;14.272;2022-12-18T06:51:03;0.60;67.40
38333;DHT22;25748;46.670;14.272;2022-12-18T06:53:29;0.60;67.30
38333;DHT22;25748;46.670;14.272;2022-12-18T06:56:02;0.60;67.30
38333;DHT22;25748;46.670;14.272;2022-12-18T06:58:28;0.60;67.40
38333;DHT22;25748;46.670;14.272;2022-12-18T07:00:59;0.60;67.40
38333;DHT22;25748;46.670;14.272;2022-12-18T07:03:27;0.60;67.80
38333;DHT22;25748;46.670;14.272;2022-12-18T07:05:53;0.60;67.40
38333;DHT22;25748;46.670;14.272;2022-12-18T07:08:19;0.60;67.40
38333;DHT22;25748;46.670;14.272;2022-12-18T07:10:45;0.60;67.30
38333;DHT22;25748;46.670;14.272;2022-12-18T07:13:10;0.60;67.30
38333;DHT22;25748;46.670;14.272;2022-12-18T07:15:36;0.60;67.10
38333;DHT22;25748;46.670;14.272;2022-12-18T07:18:02;0.60;66.90
38333;DHT22;25748;46.670;14.272;2022-12-18T07:20:27;0.60;66.90
38333;DHT22;25748;46.670;14.272;2022-12-18T07:22:53;0.60;67.00
38333;DHT22;25748;46.670;14.272;2022-12-18T07:25:19;0.50;67.00
38333;DHT22;25748;46.670;14.272;2022-12-18T07:27:44;0.60;67.10
38333;DHT22;25748;46.670;14.272;2022-12-18T07:30:10;0.60;67.20
38333;DHT22;25748;46.670;14.272;2022-12-18T07:32:36;0.50;67.20
38333;DHT22;25748;46.670;14.272;2022-12-18T07:35:02;0.50;67.20
38333;DHT22;25748;46.670;14.272;2022-12-18T07:37:28;0.50;67.30
38333;DHT22;25748;46.670;14.272;2022-12-18T07:39:54;0.50;67.40
38333;DHT22;25748;46.670;14.272;2022-12-18T07:42:20;0.50;67.40
38333;DHT22;25748;46.670;14.272;2022-12-18T07:44:59;0.50;67.40
38333;DHT22;25748;46.670;14.272;2022-12-18T07:47:25;0.50;67.50
38333;DHT22;25748;46.670;14.272;2022-12-18T07:49:51;0.50;67.60
38333;DHT22;25748;46.670;14.272;2022-12-18T07:52:17;0.50;67.60
38333;DHT22;25748;46.670;14.272;2022-12-18T07:54:42;0.60;67.70
38333;DHT22;25748;46.670;14.272;2022-12-18T07:57:14;0.60;67.70
38333;DHT22;25748;46.670;14.272;2022-12-18T07:59:42;0.60;67.70
38333;DHT22;25748;46.670;14.272;2022-12-18T08:02:07;0.50;67.70
38333;DHT22;25748;46.670;14.272;2022-12-18T08:04:33;0.60;67.70
38333;DHT22;25748;46.670;14.272;2022-12-18T08:06:59;0.60;67.70
38333;DHT22;25748;46.670;14.272;2022-12-18T08:09:24;0.60;67.70
38333;DHT22;25748;46.670;14.272;2022-12-18T08:11:50;0.60;67.70
38333;DHT22;25748;46.670;14.272;2022-12-18T08:14:16;0.60;67.60
38333;DHT22;25748;46.670;14.272;2022-12-18T08:16:42;0.60;67.60
38333;DHT22;25748;46.670;14.272;2022-12-18T08:19:07;0.60;67.60
38333;DHT22;25748;46.670;14.272;2022-12-18T08:21:37;0.70;67.70
38333;DHT22;25748;46.670;14.272;2022-12-18T08:24:03;0.70;67.60
38333;DHT22;25748;46.670;14.272;2022-12-18T08:26:30;0.70;67.50
38333;DHT22;25748;46.670;14.272;2022-12-18T08:28:57;0.70;67.50
38333;DHT22;25748;46.670;14.272;2022-12-18T08:31:28;0.70;67.50
38333;DHT22;25748;46.670;14.272;2022-12-18T08:34:03;0.70;67.40
38333;DHT22;25748;46.670;14.272;2022-12-18T08:36:29;0.70;67.70
38333;DHT22;25748;46.670;14.272;2022-12-18T08:38:54;0.70;67.30
38333;DHT22;25748;46.670;14.272;2022-12-18T08:41:20;0.70;67.30
38333;DHT22;25748;46.670;14.272;2022-12-18T08:43:46;0.80;67.40
38333;DHT22;25748;46.670;14.272;2022-12-18T08:46:37;0.80;67.30
38333;DHT22;25748;46.670;14.272;2022-12-18T08:49:05;0.80;67.20
38333;DHT22;25748;46.670;14.272;2022-12-18T08:51:31;0.80;67.10
38333;DHT22;25748;46.670;14.272;2022-12-18T08:53:57;0.80;67.10
38333;DHT22;25748;46.670;14.272;2022-12-18T08:56:23;0.80;67.10
38333;DHT22;25748;46.670;14.272;2022-12-18T08:58:54;0.80;67.00
38333;DHT22;25748;46.670;14.272;2022-12-18T09:01:20;0.80;67.00
38333;DHT22;25748;46.670;14.272;2022-12-18T09:03:48;0.80;67.00
38333;DHT22;25748;46.670;14.272;2022-12-18T09:06:15;0.90;67.10
38333;DHT22;25748;46.670;14.272;2022-12-18T09:08:42;0.90;67.10
38333;DHT22;25748;46.670;14.272;2022-12-18T09:11:22;0.90;67.20
38333;DHT22;25748;46.670;14.272;2022-12-18T09:13:48;1.00;67.10
38333;DHT22;25748;46.670;14.272;2022-12-18T09:16:14;1.00;67.10
38333;DHT22;25748;46.670;14.272;2022-12-18T09:18:40;1.00;67.20
38333;DHT22;25748;46.670;14.272;2022-12-18T09:21:10;1.00;67.10
38333;DHT22;25748;46.670;14.272;2022-12-18T09:23:36;1.00;66.70
38333;DHT22;25748;46.670;14.272;2022-12-18T09:26:02;1.00;66.60
38333;DHT22;25748;46.670;14.272;2022-12-18T09:28:28;1.00;66.70
38333;DHT22;25748;46.670;14.272;2022-12-18T09:30:54;1.10;66.80
38333;DHT22;25748;46.670;14.272;2022-12-18T09:33:19;1.10;66.80
38333;DHT22;25748;46.670;14.272;2022-12-18T09:35:46;1.10;66.70
38333;DHT22;25748;46.670;14.272;2022-12-18T09:38:25;1.10;66.60
38333;DHT22;25748;46.670;14.272;2022-12-18T09:40:53;1.10;66.10
38333;DHT22;25748;46.670;14.272;2022-12-18T09:43:49;1.10;66.10
38333;DHT22;25748;46.670;14.272;2022-12-18T09:46:32;1.10;66.10
38333;DHT22;25748;46.670;14.272;2022-12-18T09:49:03;1.10;66.20
38333;DHT22;25748;46.670;14.272;2022-12-18T09:51:36;1.10;66.10
38333;DHT22;25748;46.670;14.272;2022-12-18T09:54:03;1.20;66.30
38333;DHT22;25748;46.670;14.272;2022-12-18T09:56:36;1.20;66.40
38333;DHT22;25748;46.670;14.272;2022-12-18T09:59:03;1.20;66.30
38333;DHT22;25748;46.670;14.272;2022-12-18T10:01:31;1.30;66.30
38333;DHT22;25748;46.670;14.272;2022-12-18T10:03:57;1.30;66.30
38333;DHT22;25748;46.670;14.272;2022-12-18T10:09:39;1.40;66.10
38333;DHT22;25748;46.670;14.272;2022-12-18T10:17:41;1.50;65.60
38333;DHT22;25748;46.670;14.272;2022-12-18T10:26:12;1.50;65.10
38333;DHT22;25748;46.670;14.272;2022-12-18T10:28:41;1.50;64.60
38333;DHT22;25748;46.670;14.272;2022-12-18T10:31:21;1.60;64.70
38333;DHT22;25748;46.670;14.272;2022-12-18T10:33:51;1.60;64.10
38333;DHT22;25748;46.670;14.272;2022-12-18T10:36:22;1.60;64.20
38333;DHT22;25748;46.670;14.272;2022-12-18T10:38:53;1.60;64.00
38333;DHT22;25748;46.670;14.272;2022-12-18T10:41:24;1.70;63.90
38333;DHT22;25748;46.670;14.272;2022-12-18T10:44:22;1.70;63.80
38333;DHT22;25748;46.670;14.272;2022-12-18T10:47:05;1.70;63.60
38333;DHT22;25748;46.670;14.272;2022-12-18T10:49:41;1.80;63.60
38333;DHT22;25748;46.670;14.272;2022-12-18T10:52:21;1.80;63.30
38333;DHT22;25748;46.670;14.272;2022-12-18T10:55:15;1.80;63.00
38333;DHT22;25748;46.670;14.272;2022-12-18T10:57:45;1.80;62.90
38333;DHT22;25748;46.670;14.272;2022-12-18T11:00:26;1.80;62.80
38333;DHT22;25748;46.670;14.272;2022-12-18T11:02:53;1.90;63.10
38333;DHT22;25748;46.670;14.272;2022-12-18T11:05:32;1.90;62.70
38333;DHT22;25748;46.670;14.272;2022-12-18T11:08:00;1.90;62.30
38333;DHT22;25748;46.670;14.272;2022-12-18T11:10:36;1.90;62.50
38333;DHT22;25748;46.670;14.272;2022-12-18T11:13:22;1.90;62.50
38333;DHT22;25748;46.670;14.272;2022-12-18T11:15:54;1.90;62.40
38333;DHT22;25748;46.670;14.272;2022-12-18T11:18:30;1.90;62.20
38333;DHT22;25748;46.670;14.272;2022-12-18T11:21:06;2.00;62.40
38333;DHT22;25748;46.670;14.272;2022-12-18T11:23:33;2.00;62.40
38333;DHT22;25748;46.670;14.272;2022-12-18T11:26:01;2.10;62.10
38333;DHT22;25748;46.670;14.272;2022-12-18T11:34:05;2.10;61.20
38333;DHT22;25748;46.670;14.272;2022-12-18T11:36:38;2.20;61.20
38333;DHT22;25748;46.670;14.272;2022-12-18T11:39:16;2.20;61.00
38333;DHT22;25748;46.670;14.272;2022-12-18T11:41:54;2.20;60.50
38333;DHT22;25748;46.670;14.272;2022-12-18T11:44:59;2.20;60.30
38333;DHT22;25748;46.670;14.272;2022-12-18T11:47:39;2.20;60.20
38333;DHT22;25748;46.670;14.272;2022-12-18T11:50:29;2.20;59.70
38333;DHT22;25748;46.670;14.272;2022-12-18T11:52:56;2.30;59.10
38333;DHT22;25748;46.670;14.272;2022-12-18T11:55:37;2.20;58.90
38333;DHT22;25748;46.670;14.272;2022-12-18T11:58:24;2.30;58.80
38333;DHT22;25748;46.670;14.272;2022-12-18T12:09:38;2.30;58.60
38333;DHT22;25748;46.670;14.272;2022-12-18T12:20:39;2.40;58.50
38333;DHT22;25748;46.670;14.272;2022-12-18T12:25:58;2.50;58.80
38333;DHT22;25748;46.670;14.272;2022-12-18T12:34:18;2.60;58.50
38333;DHT22;25748;46.670;14.272;2022-12-18T12:39:37;2.60;58.50
38333;DHT22;25748;46.670;14.272;2022-12-18T12:42:18;2.70;58.60
38333;DHT22;25748;46.670;14.272;2022-12-18T12:45:06;2.70;58.70
38333;DHT22;25748;46.670;14.272;2022-12-18T12:47:41;2.70;58.70
38333;DHT22;25748;46.670;14.272;2022-12-18T12:50:17;2.70;58.60
38333;DHT22;25748;46.670;14.272;2022-12-18T12:52:52;2.70;58.70
38333;DHT22;25748;46.670;14.272;2022-12-18T12:55:27;2.80;58.80
38333;DHT22;25748;46.670;14.272;2022-12-18T12:58:08;2.80;58.70
38333;DHT22;25748;46.670;14.272;2022-12-18T13:01:04;2.80;58.70
38333;DHT22;25748;46.670;14.272;2022-12-18T13:03:58;2.80;58.70
38333;DHT22;25748;46.670;14.272;2022-12-18T13:06:38;2.80;58.80
38333;DHT22;25748;46.670;14.272;2022-12-18T13:09:06;2.70;58.50
38333;DHT22;25748;46.670;14.272;2022-12-18T13:11:45;2.70;58.70
38333;DHT22;25748;46.670;14.272;2022-12-18T13:20:13;2.70;58.50
38333;DHT22;25748;46.670;14.272;2022-12-18T13:22:47;2.70;58.60
38333;DHT22;25748;46.670;14.272;2022-12-18T13:25:35;2.70;58.80
38333;DHT22;25748;46.670;14.272;2022-12-18T13:28:07;2.70;58.70
38333;DHT22;25748;46.670;14.272;2022-12-18T13:30:42;2.70;58.70
38333;DHT22;25748;46.670;14.272;2022-12-18T13:38:37;2.60;58.50
38333;DHT22;25748;46.670;14.272;2022-12-18T13:41:25;2.60;58.50
38333;DHT22;25748;46.670;14.272;2022-12-18T13:43:54;2.60;58.50
38333;DHT22;25748;46.670;14.272;2022-12-18T13:46:52;2.60;58.60
38333;DHT22;25748;46.670;14.272;2022-12-18T13:49:41;2.60;58.60
38333;DHT22;25748;46.670;14.272;2022-12-18T13:52:22;2.60;58.80
38333;DHT22;25748;46.670;14.272;2022-12-18T13:55:02;2.60;58.90
38333;DHT22;25748;46.670;14.272;2022-12-18T13:57:37;2.60;58.90
38333;DHT22;25748;46.670;14.272;2022-12-18T14:02:57;2.50;58.80
38333;DHT22;25748;46.670;14.272;2022-12-18T14:05:27;2.50;58.80
38333;DHT22;25748;46.670;14.272;2022-12-18T14:08:05;2.50;58.90
38333;DHT22;25748;46.670;14.272;2022-12-18T14:10:35;2.50;58.90
38333;DHT22;25748;46.670;14.272;2022-12-18T14:13:10;2.50;59.10
38333;DHT22;25748;46.670;14.272;2022-12-18T14:15:45;2.40;59.10
38333;DHT22;25748;46.670;14.272;2022-12-18T14:18:37;2.40;59.10
38333;DHT22;25748;46.670;14.272;2022-12-18T14:21:14;2.40;59.00
38333;DHT22;25748;46.670;14.272;2022-12-18T14:23:42;2.30;59.10
38333;DHT22;25748;46.670;14.272;2022-12-18T14:26:28;2.30;59.40
38333;DHT22;25748;46.670;14.272;2022-12-18T14:29:17;2.30;59.30
38333;DHT22;25748;46.670;14.272;2022-12-18T14:31:44;2.30;59.50
38333;DHT22;25748;46.670;14.272;2022-12-18T14:34:22;2.30;59.60
38333;DHT22;25748;46.670;14.272;2022-12-18T14:37:15;2.30;59.70
38333;DHT22;25748;46.670;14.272;2022-12-18T14:39:59;2.30;59.80
38333;DHT22;25748;46.670;14.272;2022-12-18T14:42:30;2.30;59.90
38333;DHT22;25748;46.670;14.272;2022-12-18T14:45:32;2.30;60.00
38333;DHT22;25748;46.670;14.272;2022-12-18T14:47:59;2.20;60.00
38333;DHT22;25748;46.670;14.272;2022-12-18T14:50:25;2.30;60.00
38333;DHT22;25748;46.670;14.272;2022-12-18T14:52:52;2.30;60.30
38333;DHT22;25748;46.670;14.272;2022-12-18T14:55:19;2.20;60.40
38333;DHT22;25748;46.670;14.272;2022-12-18T14:57:45;2.20;60.50
38333;DHT22;25748;46.670;14.272;2022-12-18T15:00:43;2.20;60.50
38333;DHT22;25748;46.670;14.272;2022-12-18T15:03:09;2.20;60.60
38333;DHT22;25748;46.670;14.272;2022-12-18T15:05:35;2.20;60.70
38333;DHT22;25748;46.670;14.272;2022-12-18T15:08:01;2.20;60.90
38333;DHT22;25748;46.670;14.272;2022-12-18T15:10:30;2.10;61.00
38333;DHT22;25748;46.670;14.272;2022-12-18T15:15:46;2.10;61.20
38333;DHT22;25748;46.670;14.272;2022-12-18T15:18:13;2.10;61.40
38333;DHT22;25748;46.670;14.272;2022-12-18T15:21:08;2.10;61.50
38333;DHT22;25748;46.670;14.272;2022-12-18T15:26:04;2.00;61.80
38333;DHT22;25748;46.670;14.272;2022-12-18T15:31:17;1.90;62.00
38333;DHT22;25748;46.670;14.272;2022-12-18T15:34:01;1.90;62.10
38333;DHT22;25748;46.670;14.272;2022-12-18T15:36:28;1.90;62.30
38333;DHT22;25748;46.670;14.272;2022-12-18T15:39:05;1.90;62.40
38333;DHT22;25748;46.670;14.272;2022-12-18T15:41:33;1.90;62.70
38333;DHT22;25748;46.670;14.272;2022-12-18T15:44:23;1.90;62.80
38333;DHT22;25748;46.670;14.272;2022-12-18T15:46:50;1.90;63.00
38333;DHT22;25748;46.670;14.272;2022-12-18T15:49:15;2.00;63.20
38333;DHT22;25748;46.670;14.272;2022-12-18T15:51:41;1.90;63.20
38333;DHT22;25748;46.670;14.272;2022-12-18T15:54:11;2.00;63.30
38333;DHT22;25748;46.670;14.272;2022-12-18T15:56:38;2.00;63.30
38333;DHT22;25748;46.670;14.272;2022-12-18T15:59:23;2.00;63.40
38333;DHT22;25748;46.670;14.272;2022-12-18T16:01:50;2.00;63.30
38333;DHT22;25748;46.670;14.272;2022-12-18T16:04:18;1.90;63.30
38333;DHT22;25748;46.670;14.272;2022-12-18T16:06:48;2.00;63.40
38333;DHT22;25748;46.670;14.272;2022-12-18T16:09:14;2.00;63.40
38333;DHT22;25748;46.670;14.272;2022-12-18T16:11:42;1.90;63.30
38333;DHT22;25748;46.670;14.272;2022-12-18T16:14:26;1.90;63.30
38333;DHT22;25748;46.670;14.272;2022-12-18T16:17:00;1.90;63.30
38333;DHT22;25748;46.670;14.272;2022-12-18T16:19:26;1.90;63.30
38333;DHT22;25748;46.670;14.272;2022-12-18T16:21:53;2.00;63.30
38333;DHT22;25748;46.670;14.272;2022-12-18T16:24:25;2.00;63.40
38333;DHT22;25748;46.670;14.272;2022-12-18T16:26:52;2.00;63.40
38333;DHT22;25748;46.670;14.272;2022-12-18T16:29:19;2.00;63.40
38333;DHT22;25748;46.670;14.272;2022-12-18T16:31:50;2.00;63.30
38333;DHT22;25748;46.670;14.272;2022-12-18T16:34:25;2.00;63.20
38333;DHT22;25748;46.670;14.272;2022-12-18T16:36:54;2.00;63.20
38333;DHT22;25748;46.670;14.272;2022-12-18T16:39:21;2.00;63.20
38333;DHT22;25748;46.670;14.272;2022-12-18T16:41:47;1.90;63.00
38333;DHT22;25748;46.670;14.272;2022-12-18T16:44:13;1.90;63.10
38333;DHT22;25748;46.670;14.272;2022-12-18T16:46:40;1.90;63.20
38333;DHT22;25748;46.670;14.272;2022-12-18T16:49:15;1.90;63.20
38333;DHT22;25748;46.670;14.272;2022-12-18T16:51:41;1.90;63.20
38333;DHT22;25748;46.670;14.272;2022-12-18T16:54:12;1.90;63.30
38333;DHT22;25748;46.670;14.272;2022-12-18T16:56:37;1.90;63.40
38333;DHT22;25748;46.670;14.272;2022-12-18T16:59:06;2.00;63.50
38333;DHT22;25748;46.670;14.272;2022-12-18T17:01:35;2.00;63.50
38333;DHT22;25748;46.670;14.272;2022-12-18T17:04:05;2.00;63.60
38333;DHT22;25748;46.670;14.272;2022-12-18T17:06:38;2.00;63.60
38333;DHT22;25748;46.670;14.272;2022-12-18T17:09:08;1.90;63.60
38333;DHT22;25748;46.670;14.272;2022-12-18T17:11:34;2.00;63.60
38333;DHT22;25748;46.670;14.272;2022-12-18T17:14:13;2.00;63.60
38333;DHT22;25748;46.670;14.272;2022-12-18T17:16:39;2.00;63.60
38333;DHT22;25748;46.670;14.272;2022-12-18T17:19:05;1.90;63.60
38333;DHT22;25748;46.670;14.272;2022-12-18T17:21:32;2.00;63.70
38333;DHT22;25748;46.670;14.272;2022-12-18T17:24:07;2.00;63.70
38333;DHT22;25748;46.670;14.272;2022-12-18T17:26:33;2.00;63.60